Time;durP1;ratioP1;P1;durP2;ratioP2;P2;SDS_P1;SDS_P2;PMS_P1;PMS_P2;Temp;Humidity;BMP_temperature;BMP_pressure;BME280_temperature;BME280_humidity;BME280_pressure;Samples;Min_cycle;Max_cycle;Signal;HPM_P1;HPM_P2
2023/05/21 00:02:21;;;;;;;13.38;11.82;;;;;;;;;;5085050;28;20234;-70
2023/05/21 00:04:47;;;;;;;13.77;12.27;;;;;;;;;;5084855;28;20204;-70
2023/05/21 00:07:15;;;;;;;14.27;12.00;;;;;;;;;;5085320;28;20500;-70
2023/05/21 00:09:41;;;;;;;13.13;11.82;;;;;;;;;;5084805;28;20216;-70
2023/05/21 00:12:09;;;;;;;13.32;12.02;;;;;;;;;;5084561;28;20188;-70
2023/05/21 00:14:35;;;;;;;16.52;11.20;;;;;;;;;;5084880;28;20211;-70
2023/05/21 00:17:01;;;;;;;14.23;12.15;;;;;;;;;;5084865;28;20196;-70
2023/05/21 00:19:28;;;;;;;12.50;11.23;;;;;;;;;;5085058;28;20196;-70
2023/05/21 00:21:54;;;;;;;12.88;11.63;;;;;;;;;;5084490;28;20196;-70
2023/05/21 00:24:21;;;;;;;13.05;11.38;;;;;;;;;;5084557;28;20196;-70
2023/05/21 00:26:47;;;;;;;12.30;11.10;;;;;;;;;;5084395;28;20585;-70
2023/05/21 00:29:14;;;;;;;11.07;10.13;;;;;;;;;;5084666;28;20197;-70
2023/05/21 00:31:41;;;;;;;12.90;11.50;;;;;;;;;;5084444;28;20244;-70
2023/05/21 00:34:07;;;;;;;11.68;10.57;;;;;;;;;;5084586;28;20284;-70
2023/05/21 00:36:33;;;;;;;12.52;11.18;;;;;;;;;;5084609;28;20204;-70
2023/05/21 00:39:01;;;;;;;12.75;11.40;;;;;;;;;;5084210;28;20196;-70
2023/05/21 00:41:28;;;;;;;13.60;11.05;;;;;;;;;;5084232;28;20199;-70
2023/05/21 00:43:56;;;;;;;11.60;10.43;;;;;;;;;;5084049;28;20224;-70
2023/05/21 00:46:23;;;;;;;12.95;10.85;;;;;;;;;;5084273;28;20326;-70
2023/05/21 00:48:50;;;;;;;12.48;11.35;;;;;;;;;;5084020;28;20428;-70
2023/05/21 00:51:17;;;;;;;11.80;10.68;;;;;;;;;;5083780;28;20270;-70
2023/05/21 00:53:44;;;;;;;11.95;10.75;;;;;;;;;;5083694;28;20196;-70
2023/05/21 00:56:10;;;;;;;12.10;10.95;;;;;;;;;;5082944;28;20438;-70
2023/05/21 00:58:37;;;;;;;13.32;12.13;;;;;;;;;;5083777;28;20200;-70
2023/05/21 01:01:05;;;;;;;13.50;12.10;;;;;;;;;;5083782;28;20214;-70
2023/05/21 01:03:37;;;;;;;13.68;12.40;;;;;;;;;;5083696;28;20536;-70
2023/05/21 01:06:04;;;;;;;13.65;12.35;;;;;;;;;;5083755;28;20476;-70
2023/05/21 01:08:30;;;;;;;16.10;12.77;;;;;;;;;;5083687;28;20522;-70
2023/05/21 01:10:56;;;;;;;14.15;12.70;;;;;;;;;;5083483;28;20221;-70
2023/05/21 01:13:23;;;;;;;15.15;13.23;;;;;;;;;;5083497;28;20527;-70
2023/05/21 01:15:50;;;;;;;13.25;12.05;;;;;;;;;;5083648;28;20197;-70
2023/05/21 01:18:19;;;;;;;14.48;12.98;;;;;;;;;;5083849;28;20196;-70
2023/05/21 01:20:47;;;;;;;13.35;12.13;;;;;;;;;;5083340;28;20201;-70
2023/05/21 01:23:15;;;;;;;15.23;13.00;;;;;;;;;;5083606;28;20500;-70
2023/05/21 01:25:42;;;;;;;14.32;12.82;;;;;;;;;;5083638;28;20196;-70
2023/05/21 01:28:08;;;;;;;13.80;12.40;;;;;;;;;;5083784;28;20220;-70
2023/05/21 01:33:41;;;;;;;13.95;12.50;;;;;;;;;;5082726;28;20371;-70
2023/05/21 01:36:08;;;;;;;15.27;12.65;;;;;;;;;;5083460;28;20212;-70
2023/05/21 01:38:41;;;;;;;14.57;12.40;;;;;;;;;;5083005;28;20200;-70
2023/05/21 01:41:10;;;;;;;14.00;12.60;;;;;;;;;;5083191;28;20496;-70
2023/05/21 01:43:38;;;;;;;14.85;12.77;;;;;;;;;;5082972;28;20203;-70
2023/05/21 01:46:05;;;;;;;15.60;12.30;;;;;;;;;;5082975;28;20558;-70
2023/05/21 01:48:31;;;;;;;13.38;12.07;;;;;;;;;;5082945;28;20196;-70
2023/05/21 01:50:59;;;;;;;13.95;12.52;;;;;;;;;;5082960;28;20226;-70
2023/05/21 01:53:26;;;;;;;16.80;13.82;;;;;;;;;;5082915;28;20392;-70
2023/05/21 01:55:54;;;;;;;13.52;12.18;;;;;;;;;;5082827;28;20234;-70
2023/05/21 01:58:21;;;;;;;17.13;12.00;;;;;;;;;;5082709;28;20424;-70
2023/05/21 02:00:49;;;;;;;13.20;11.80;;;;;;;;;;5082594;28;20192;-70
2023/05/21 02:03:16;;;;;;;14.60;13.18;;;;;;;;;;5082666;28;20526;-70
2023/05/21 02:05:43;;;;;;;15.07;12.70;;;;;;;;;;5082756;28;20196;-70
2023/05/21 02:08:10;;;;;;;15.77;14.05;;;;;;;;;;5082331;28;20496;-70
2023/05/21 02:10:36;;;;;;;14.35;12.82;;;;;;;;;;5082387;28;20212;-70
2023/05/21 02:13:04;;;;;;;15.80;13.02;;;;;;;;;;5082375;28;20422;-70
2023/05/21 02:15:33;;;;;;;14.95;13.20;;;;;;;;;;5082215;28;20299;-70
2023/05/21 02:17:59;;;;;;;16.88;13.63;;;;;;;;;;5082633;28;20196;-70
2023/05/21 02:20:25;;;;;;;14.20;12.80;;;;;;;;;;5082599;28;20406;-70
2023/05/21 02:22:52;;;;;;;14.20;12.85;;;;;;;;;;5082287;28;20208;-70
2023/05/21 02:25:19;;;;;;;14.35;12.95;;;;;;;;;;5082504;28;20530;-70
2023/05/21 02:27:45;;;;;;;14.57;13.18;;;;;;;;;;5082286;28;20216;-70
2023/05/21 02:30:14;;;;;;;16.55;13.18;;;;;;;;;;5082361;28;20213;-70
2023/05/21 02:32:41;;;;;;;14.80;13.23;;;;;;;;;;5082293;28;20203;-70
2023/05/21 02:35:09;;;;;;;14.90;12.93;;;;;;;;;;5082363;28;20197;-70
2023/05/21 02:37:36;;;;;;;13.88;12.43;;;;;;;;;;5082296;28;20207;-70
2023/05/21 02:40:04;;;;;;;14.45;13.00;;;;;;;;;;5082003;28;20204;-70
2023/05/21 02:42:31;;;;;;;13.85;12.45;;;;;;;;;;5082017;28;20196;-70
2023/05/21 02:44:57;;;;;;;15.60;12.70;;;;;;;;;;5082340;28;20346;-70
2023/05/21 02:47:25;;;;;;;14.55;12.63;;;;;;;;;;5082219;28;20201;-70
2023/05/21 02:49:52;;;;;;;14.20;12.73;;;;;;;;;;5081946;28;20428;-70
2023/05/21 02:52:18;;;;;;;13.88;12.57;;;;;;;;;;5081869;28;20201;-70
2023/05/21 02:54:44;;;;;;;14.13;12.70;;;;;;;;;;5081954;28;20203;-70
2023/05/21 02:57:11;;;;;;;14.68;13.20;;;;;;;;;;5081748;28;20242;-70
2023/05/21 02:59:37;;;;;;;14.10;12.70;;;;;;;;;;5081918;28;20196;-70
2023/05/21 03:02:03;;;;;;;13.88;12.55;;;;;;;;;;5081761;28;20196;-70
2023/05/21 03:04:31;;;;;;;14.10;12.70;;;;;;;;;;5081960;28;20496;-70
2023/05/21 03:07:00;;;;;;;15.13;12.65;;;;;;;;;;5081964;28;20234;-70
2023/05/21 03:09:27;;;;;;;15.73;13.02;;;;;;;;;;5081749;28;20504;-70
2023/05/21 03:11:53;;;;;;;14.45;12.55;;;;;;;;;;5081767;28;20388;-71
2023/05/21 03:14:20;;;;;;;14.52;13.02;;;;;;;;;;5081864;28;20418;-71
2023/05/21 03:16:47;;;;;;;14.48;13.07;;;;;;;;;;5081837;28;20197;-71
2023/05/21 03:19:14;;;;;;;17.33;12.50;;;;;;;;;;5082145;28;20196;-71
2023/05/21 03:21:41;;;;;;;14.88;13.25;;;;;;;;;;5085730;28;20192;-71
2023/05/21 03:24:08;;;;;;;15.55;13.77;;;;;;;;;;5085745;28;20197;-71
2023/05/21 03:26:34;;;;;;;14.40;12.90;;;;;;;;;;5085724;28;20203;-71
2023/05/21 03:29:01;;;;;;;15.35;13.77;;;;;;;;;;5085952;28;20520;-71
2023/05/21 03:31:27;;;;;;;16.80;14.38;;;;;;;;;;5085639;28;20469;-71
2023/05/21 03:33:53;;;;;;;15.50;13.70;;;;;;;;;;5085627;28;20200;-71
2023/05/21 03:36:20;;;;;;;14.90;13.32;;;;;;;;;;5085537;28;20196;-71
2023/05/21 03:38:47;;;;;;;15.48;13.98;;;;;;;;;;5085214;28;20267;-71
2023/05/21 03:41:13;;;;;;;15.40;13.85;;;;;;;;;;5085372;28;20246;-71
2023/05/21 03:43:40;;;;;;;14.65;13.32;;;;;;;;;;5085469;28;20233;-71
2023/05/21 03:46:06;;;;;;;15.10;13.55;;;;;;;;;;5085338;28;20196;-71
2023/05/21 03:48:32;;;;;;;15.20;13.60;;;;;;;;;;5085306;28;20196;-71
2023/05/21 03:50:58;;;;;;;15.43;13.82;;;;;;;;;;5085076;28;20212;-71
2023/05/21 03:53:25;;;;;;;15.15;13.65;;;;;;;;;;5084973;28;20200;-71
2023/05/21 03:55:54;;;;;;;15.68;14.00;;;;;;;;;;5085285;28;20258;-71
2023/05/21 03:58:20;;;;;;;17.13;14.60;;;;;;;;;;5085337;28;20271;-71
2023/05/21 04:00:47;;;;;;;15.63;13.07;;;;;;;;;;5085041;28;20231;-71
2023/05/21 04:03:13;;;;;;;15.45;13.82;;;;;;;;;;5084854;28;20196;-71
2023/05/21 04:05:40;;;;;;;16.65;14.25;;;;;;;;;;5084982;28;20391;-71
2023/05/21 04:08:06;;;;;;;15.52;13.93;;;;;;;;;;5084995;28;20269;-71
2023/05/21 04:10:32;;;;;;;16.52;13.93;;;;;;;;;;5084874;28;20426;-71
2023/05/21 04:13:00;;;;;;;15.35;13.88;;;;;;;;;;5084840;28;20234;-71
2023/05/21 04:15:26;;;;;;;15.48;13.95;;;;;;;;;;5085187;28;20324;-72
2023/05/21 04:17:53;;;;;;;15.20;13.70;;;;;;;;;;5084949;28;20208;-72
2023/05/21 04:20:19;;;;;;;14.23;12.90;;;;;;;;;;5084766;28;20205;-72
2023/05/21 04:22:46;;;;;;;15.38;13.77;;;;;;;;;;5084513;28;20242;-72
2023/05/21 04:25:12;;;;;;;15.32;13.70;;;;;;;;;;5084873;28;20196;-72
2023/05/21 04:27:39;;;;;;;17.92;13.90;;;;;;;;;;5084426;28;20222;-71
2023/05/21 04:30:07;;;;;;;15.18;13.10;;;;;;;;;;5084370;28;20246;-71
2023/05/21 04:32:33;;;;;;;15.25;13.65;;;;;;;;;;5084327;28;20217;-71
2023/05/21 04:35:00;;;;;;;16.17;14.07;;;;;;;;;;5084278;28;20196;-71
2023/05/21 04:37:27;;;;;;;16.05;13.75;;;;;;;;;;5084577;28;20196;-71
2023/05/21 04:39:54;;;;;;;15.52;13.73;;;;;;;;;;5084430;28;20365;-71
2023/05/21 04:42:22;;;;;;;16.52;14.85;;;;;;;;;;5084229;28;20267;-71
2023/05/21 04:44:49;;;;;;;17.70;14.20;;;;;;;;;;5084488;28;20435;-71
2023/05/21 04:47:17;;;;;;;16.55;14.93;;;;;;;;;;5084271;28;20200;-71
2023/05/21 04:49:43;;;;;;;16.70;14.15;;;;;;;;;;5084168;28;20197;-71
2023/05/21 04:52:10;;;;;;;15.75;13.35;;;;;;;;;;5084113;28;20231;-71
2023/05/21 04:54:37;;;;;;;14.00;12.70;;;;;;;;;;5084645;28;20392;-71
2023/05/21 04:57:04;;;;;;;17.10;13.98;;;;;;;;;;5084478;28;20235;-71
2023/05/21 04:59:30;;;;;;;15.27;12.88;;;;;;;;;;5084107;28;20203;-71
2023/05/21 05:01:57;;;;;;;13.57;12.23;;;;;;;;;;5083830;28;20193;-71
2023/05/21 05:04:24;;;;;;;13.85;12.45;;;;;;;;;;5083859;28;20242;-71
2023/05/21 05:06:51;;;;;;;15.38;13.48;;;;;;;;;;5084024;28;20211;-71
2023/05/21 05:09:17;;;;;;;14.50;13.00;;;;;;;;;;5083942;28;20235;-71
2023/05/21 05:11:43;;;;;;;15.82;12.82;;;;;;;;;;5083659;28;20216;-71
2023/05/21 05:14:10;;;;;;;14.70;13.00;;;;;;;;;;5083549;28;20204;-71
2023/05/21 05:16:36;;;;;;;14.25;12.75;;;;;;;;;;5083570;28;20235;-71
2023/05/21 05:19:02;;;;;;;15.00;13.43;;;;;;;;;;5083734;28;20325;-71
2023/05/21 05:21:30;;;;;;;14.18;12.73;;;;;;;;;;5083952;28;20192;-71
2023/05/21 05:23:56;;;;;;;14.32;12.65;;;;;;;;;;5083660;28;20267;-71
2023/05/21 05:26:23;;;;;;;15.40;13.30;;;;;;;;;;5083551;28;20434;-71
2023/05/21 05:28:49;;;;;;;15.57;13.02;;;;;;;;;;5083548;28;20543;-71
2023/05/21 05:31:15;;;;;;;13.98;12.63;;;;;;;;;;5083251;28;20221;-71
2023/05/21 05:33:42;;;;;;;16.98;13.65;;;;;;;;;;5083427;28;20196;-71
2023/05/21 05:36:08;;;;;;;16.48;13.70;;;;;;;;;;5083259;28;20235;-71
2023/05/21 05:38:35;;;;;;;18.35;14.93;;;;;;;;;;5083258;28;20229;-71
2023/05/21 05:41:02;;;;;;;15.82;14.27;;;;;;;;;;5083469;28;20192;-71
2023/05/21 05:43:28;;;;;;;15.15;13.65;;;;;;;;;;5082400;28;20196;-71
2023/05/21 05:45:54;;;;;;;15.02;13.43;;;;;;;;;;5083670;28;20512;-71
2023/05/21 05:48:21;;;;;;;17.63;14.38;;;;;;;;;;5083165;28;20204;-71
2023/05/21 05:50:47;;;;;;;16.60;14.07;;;;;;;;;;5083206;28;20200;-71
2023/05/21 05:53:13;;;;;;;36.97;25.80;;;;;;;;;;5082924;28;20242;-71
2023/05/21 05:55:41;;;;;;;33.58;23.88;;;;;;;;;;5082951;28;20197;-71
2023/05/21 05:58:07;;;;;;;24.75;20.25;;;;;;;;;;5082943;28;20200;-71
2023/05/21 06:00:33;;;;;;;17.95;15.75;;;;;;;;;;5082721;28;20196;-71
2023/05/21 06:03:00;;;;;;;22.73;17.08;;;;;;;;;;5083037;28;20231;-71
2023/05/21 06:05:26;;;;;;;17.58;15.73;;;;;;;;;;5083232;28;20234;-71
2023/05/21 06:07:52;;;;;;;23.27;16.75;;;;;;;;;;5083287;28;20313;-71
2023/05/21 06:10:19;;;;;;;18.88;16.77;;;;;;;;;;5082981;28;20445;-71
2023/05/21 06:12:46;;;;;;;17.60;15.77;;;;;;;;;;5082669;28;20596;-71
2023/05/21 06:15:13;;;;;;;23.35;19.27;;;;;;;;;;5082813;28;20399;-71
2023/05/21 06:17:40;;;;;;;16.85;15.15;;;;;;;;;;5083048;28;20234;-71
2023/05/21 06:20:08;;;;;;;16.67;14.88;;;;;;;;;;5083140;28;20201;-71
2023/05/21 06:22:35;;;;;;;19.30;15.45;;;;;;;;;;5082857;28;20193;-71
2023/05/21 06:25:01;;;;;;;20.05;16.27;;;;;;;;;;5083019;28;20196;-71
2023/05/21 06:27:28;;;;;;;20.67;16.80;;;;;;;;;;5082581;28;20225;-71
2023/05/21 06:29:56;;;;;;;18.83;16.30;;;;;;;;;;5082934;28;20428;-71
2023/05/21 06:32:22;;;;;;;18.08;16.23;;;;;;;;;;5082735;28;20307;-71
2023/05/21 06:34:48;;;;;;;18.40;15.48;;;;;;;;;;5083009;28;20212;-71
2023/05/21 06:37:18;;;;;;;18.30;16.40;;;;;;;;;;5082961;28;20218;-71
2023/05/21 06:39:45;;;;;;;19.00;16.15;;;;;;;;;;5083074;28;20196;-71
2023/05/21 06:42:11;;;;;;;18.52;15.27;;;;;;;;;;5082833;28;20259;-71
2023/05/21 06:44:37;;;;;;;20.65;15.27;;;;;;;;;;5083019;28;20250;-71
2023/05/21 06:47:05;;;;;;;17.17;15.40;;;;;;;;;;5083128;28;20204;-71
2023/05/21 06:49:31;;;;;;;20.60;15.50;;;;;;;;;;5083241;28;20200;-71
2023/05/21 06:51:58;;;;;;;17.75;15.85;;;;;;;;;;5082546;28;20240;-71
2023/05/21 06:54:24;;;;;;;18.20;16.30;;;;;;;;;;5082640;28;20242;-71
2023/05/21 06:56:50;;;;;;;18.67;15.85;;;;;;;;;;5082615;28;20266;-71
2023/05/21 06:59:16;;;;;;;17.77;14.98;;;;;;;;;;5082851;28;20196;-71
2023/05/21 07:01:43;;;;;;;21.25;16.60;;;;;;;;;;5082560;28;20192;-71
2023/05/21 07:04:10;;;;;;;18.40;15.73;;;;;;;;;;5082453;28;20204;-71
2023/05/21 07:06:37;;;;;;;15.98;14.35;;;;;;;;;;5082789;28;20418;-71
2023/05/21 07:09:04;;;;;;;17.13;15.32;;;;;;;;;;5082352;28;20504;-71
2023/05/21 07:11:30;;;;;;;18.23;15.15;;;;;;;;;;5082387;28;20249;-71
2023/05/21 07:13:59;;;;;;;21.55;15.25;;;;;;;;;;5082792;28;20208;-71
2023/05/21 07:16:25;;;;;;;16.70;15.00;;;;;;;;;;5082851;28;20196;-71
2023/05/21 07:18:51;;;;;;;17.65;14.73;;;;;;;;;;5082912;28;20523;-71
2023/05/21 07:21:19;;;;;;;19.73;14.40;;;;;;;;;;5082470;28;20197;-71
2023/05/21 07:23:45;;;;;;;19.05;14.52;;;;;;;;;;5081964;28;20200;-71
2023/05/21 07:26:11;;;;;;;19.08;15.18;;;;;;;;;;5082453;28;20200;-71
2023/05/21 07:28:38;;;;;;;16.80;13.50;;;;;;;;;;5082653;28;20224;-72
2023/05/21 07:31:04;;;;;;;15.18;13.52;;;;;;;;;;5082296;28;20203;-71
2023/05/21 07:33:30;;;;;;;18.75;13.30;;;;;;;;;;5082266;28;20288;-71
2023/05/21 07:35:57;;;;;;;15.32;13.32;;;;;;;;;;5082103;28;20201;-63
2023/05/21 07:38:25;;;;;;;14.27;12.90;;;;;;;;;;5081946;28;20204;-63
2023/05/21 07:40:51;;;;;;;15.65;13.10;;;;;;;;;;5082315;28;20200;-63
2023/05/21 07:43:17;;;;;;;15.63;12.77;;;;;;;;;;5081942;28;20591;-63
2023/05/21 07:45:43;;;;;;;15.30;12.65;;;;;;;;;;5081962;28;20222;-64
2023/05/21 07:48:10;;;;;;;13.93;12.57;;;;;;;;;;5081991;28;20197;-63
2023/05/21 07:50:37;;;;;;;15.80;12.38;;;;;;;;;;5081901;28;20500;-63
2023/05/21 07:53:03;;;;;;;12.82;11.63;;;;;;;;;;5081474;28;20219;-63
2023/05/21 07:55:31;;;;;;;14.02;12.63;;;;;;;;;;5081880;28;20203;-63
2023/05/21 07:57:58;;;;;;;13.20;11.35;;;;;;;;;;5082013;28;20196;-63
2023/05/21 08:00:25;;;;;;;12.93;11.15;;;;;;;;;;5081862;28;20204;-63
2023/05/21 08:02:52;;;;;;;11.80;10.32;;;;;;;;;;5081646;28;20220;-63
2023/05/21 08:05:18;;;;;;;11.63;10.50;;;;;;;;;;5082779;28;20197;-63
2023/05/21 08:07:45;;;;;;;11.18;9.95;;;;;;;;;;5085257;28;20387;-63
2023/05/21 08:10:11;;;;;;;11.90;10.68;;;;;;;;;;5085692;28;20253;-63
2023/05/21 08:12:39;;;;;;;10.88;9.88;;;;;;;;;;5085418;28;20232;-64
2023/05/21 08:15:05;;;;;;;10.98;10.02;;;;;;;;;;5074268;28;20284;-60
2023/05/21 08:17:31;;;;;;;10.45;9.35;;;;;;;;;;5079032;28;20403;-60
2023/05/21 08:19:58;;;;;;;11.02;9.82;;;;;;;;;;5080214;28;20543;-62
2023/05/21 08:22:24;;;;;;;10.50;9.30;;;;;;;;;;5079857;28;20211;-61
2023/05/21 08:24:50;;;;;;;11.52;9.43;;;;;;;;;;5079962;28;20437;-61
2023/05/21 08:27:17;;;;;;;10.65;9.60;;;;;;;;;;5079516;28;20415;-62
2023/05/21 08:29:45;;;;;;;10.45;9.20;;;;;;;;;;5076328;28;20217;-62
2023/05/21 08:32:11;;;;;;;10.35;9.40;;;;;;;;;;5069629;28;20256;-62
2023/05/21 08:34:37;;;;;;;10.13;8.98;;;;;;;;;;5064315;28;20227;-63
2023/05/21 08:37:04;;;;;;;10.50;9.40;;;;;;;;;;5077365;28;20204;-62
2023/05/21 08:39:30;;;;;;;9.90;9.05;;;;;;;;;;5070841;28;20200;-62
2023/05/21 08:42:00;;;;;;;11.85;9.52;;;;;;;;;;5079252;28;20476;-62
2023/05/21 08:44:27;;;;;;;10.90;9.27;;;;;;;;;;5079642;28;20258;-62
2023/05/21 08:46:54;;;;;;;10.43;8.77;;;;;;;;;;5079287;28;20215;-61
2023/05/21 08:49:22;;;;;;;9.20;8.40;;;;;;;;;;5065663;28;20424;-62
2023/05/21 08:51:49;;;;;;;9.23;8.30;;;;;;;;;;5053506;28;20259;-62
2023/05/21 08:54:15;;;;;;;9.50;8.70;;;;;;;;;;5078011;28;20270;-62
2023/05/21 08:56:44;;;;;;;10.05;8.80;;;;;;;;;;5078605;28;20235;-62
2023/05/21 08:59:11;;;;;;;9.45;8.65;;;;;;;;;;5078802;28;20235;-62
2023/05/21 09:01:40;;;;;;;9.80;8.60;;;;;;;;;;5078371;28;20262;-62
2023/05/21 09:04:09;;;;;;;9.07;8.30;;;;;;;;;;5078170;28;20457;-62
2023/05/21 09:06:36;;;;;;;10.27;9.13;;;;;;;;;;5078452;28;20208;-62
2023/05/21 09:09:06;;;;;;;11.25;8.23;;;;;;;;;;5078267;28;20226;-62
2023/05/21 09:11:32;;;;;;;10.05;8.50;;;;;;;;;;5078027;28;20208;-62
2023/05/21 09:13:59;;;;;;;9.77;8.73;;;;;;;;;;5077746;28;20232;-62
2023/05/21 09:16:26;;;;;;;8.38;7.68;;;;;;;;;;5077663;28;20209;-62
2023/05/21 09:18:52;;;;;;;9.30;8.40;;;;;;;;;;5077227;28;20212;-61
2023/05/21 09:21:26;;;;;;;13.73;12.10;;;;;;;;;;5078483;28;20262;-62
2023/05/21 09:23:56;;;;;;;11.68;8.48;;;;;;;;;;5078218;28;20245;-63
2023/05/21 09:26:23;;;;;;;13.00;11.70;;;;;;;;;;5078218;28;20208;-62
2023/05/21 09:28:49;;;;;;;9.25;8.20;;;;;;;;;;5078087;28;20224;-62
2023/05/21 09:31:15;;;;;;;10.35;8.60;;;;;;;;;;5079025;28;20525;-61
2023/05/21 09:33:45;;;;;;;9.70;8.52;;;;;;;;;;5079178;28;20287;-62
2023/05/21 09:36:11;;;;;;;9.43;8.52;;;;;;;;;;5077943;28;20215;-62
2023/05/21 09:38:39;;;;;;;9.10;8.30;;;;;;;;;;5078370;28;20421;-62
2023/05/21 09:41:05;;;;;;;10.20;9.10;;;;;;;;;;5077885;28;20291;-62
2023/05/21 09:43:31;;;;;;;9.20;8.07;;;;;;;;;;5077420;28;20265;-62
2023/05/21 09:45:59;;;;;;;8.23;7.53;;;;;;;;;;5077747;28;20440;-62
2023/05/21 09:48:35;;;;;;;9.10;8.20;;;;;;;;;;5077850;28;20266;-62
2023/05/21 09:51:08;;;;;;;10.05;8.57;;;;;;;;;;5078376;28;20211;-60
2023/05/21 09:53:35;;;;;;;9.88;8.57;;;;;;;;;;5058463;28;20422;-61
2023/05/21 09:56:04;;;;;;;9.80;8.80;;;;;;;;;;5059103;28;20213;-61
2023/05/21 09:58:30;;;;;;;10.02;8.55;;;;;;;;;;5059323;28;20227;-61
2023/05/21 10:00:56;;;;;;;8.88;8.18;;;;;;;;;;5058354;28;20212;-61
2023/05/21 10:03:23;;;;;;;9.20;8.10;;;;;;;;;;5066742;28;20208;-61
2023/05/21 10:05:51;;;;;;;10.02;8.68;;;;;;;;;;5078102;28;20212;-61
2023/05/21 10:08:18;;;;;;;9.45;8.15;;;;;;;;;;5077512;28;20442;-61
2023/05/21 10:10:45;;;;;;;9.65;8.10;;;;;;;;;;5077704;28;20546;-61
2023/05/21 10:13:14;;;;;;;8.88;7.97;;;;;;;;;;5078278;28;20277;-61
2023/05/21 10:15:42;;;;;;;9.13;8.23;;;;;;;;;;5078802;28;20333;-59
2023/05/21 10:18:10;;;;;;;8.55;7.85;;;;;;;;;;5078423;28;20258;-62
2023/05/21 10:20:37;;;;;;;9.25;8.50;;;;;;;;;;5071453;28;20208;-63
2023/05/21 10:23:04;;;;;;;9.13;8.27;;;;;;;;;;5069886;28;20500;-62
2023/05/21 10:25:31;;;;;;;8.63;7.75;;;;;;;;;;5080165;28;20215;-62
2023/05/21 10:27:57;;;;;;;10.52;8.68;;;;;;;;;;5068984;28;20235;-62
2023/05/21 10:30:25;;;;;;;8.30;7.60;;;;;;;;;;5077076;28;20215;-62
2023/05/21 10:32:51;;;;;;;9.10;8.23;;;;;;;;;;5059732;28;20232;-62
2023/05/21 10:35:18;;;;;;;9.23;8.20;;;;;;;;;;5079220;28;20220;-62
2023/05/21 10:37:44;;;;;;;9.35;7.80;;;;;;;;;;5080271;28;20211;-62
2023/05/21 10:40:10;;;;;;;10.80;7.80;;;;;;;;;;5079691;28;20212;-63
2023/05/21 10:43:02;;;;;;;16.63;8.20;;;;;;;;;;5075944;28;20242;-63
2023/05/21 10:45:35;;;;;;;8.93;8.13;;;;;;;;;;5082300;28;20216;-63
2023/05/21 10:48:10;;;;;;;9.02;8.10;;;;;;;;;;5082488;28;20203;-63
2023/05/21 10:51:10;;;;;;;8.98;8.18;;;;;;;;;;5082170;28;20207;-63
2023/05/21 10:53:43;;;;;;;9.55;8.45;;;;;;;;;;5037752;28;20474;-61
2023/05/21 10:56:16;;;;;;;10.68;8.45;;;;;;;;;;5037478;28;20527;-61
2023/05/21 10:58:50;;;;;;;8.93;8.13;;;;;;;;;;5057807;28;20199;-61
2023/05/21 11:01:18;;;;;;;10.25;9.27;;;;;;;;;;5081647;28;20436;-72
2023/05/21 11:03:45;;;;;;;8.63;7.93;;;;;;;;;;5082757;28;20215;-72
2023/05/21 11:06:22;;;;;;;9.45;8.55;;;;;;;;;;5082197;28;20196;-72
2023/05/21 11:08:48;;;;;;;8.77;7.97;;;;;;;;;;5080796;28;20202;-73
2023/05/21 11:11:36;;;;;;;11.30;8.07;;;;;;;;;;5080631;28;20501;-72
2023/05/21 11:14:23;;;;;;;9.40;8.60;;;;;;;;;;5080506;28;20262;-72
2023/05/21 11:16:50;;;;;;;9.73;8.73;;;;;;;;;;5081100;28;20195;-72
2023/05/21 11:19:17;;;;;;;10.80;9.02;;;;;;;;;;5080988;28;20196;-72
2023/05/21 11:21:43;;;;;;;8.77;7.97;;;;;;;;;;5081973;28;20370;-73
2023/05/21 11:24:18;;;;;;;8.73;8.02;;;;;;;;;;5081851;28;20545;-72
2023/05/21 11:27:05;;;;;;;8.30;7.53;;;;;;;;;;5081791;28;20200;-72
2023/05/21 11:29:33;;;;;;;7.15;6.43;;;;;;;;;;5076859;28;20199;-70
2023/05/21 11:32:01;;;;;;;7.35;6.75;;;;;;;;;;5081903;28;20196;-70
2023/05/21 11:34:36;;;;;;;7.15;6.65;;;;;;;;;;5082217;28;20286;-71
2023/05/21 11:37:23;;;;;;;11.90;6.72;;;;;;;;;;5082185;28;20200;-71
2023/05/21 11:39:49;;;;;;;8.07;6.97;;;;;;;;;;5082000;28;20241;-71
2023/05/21 11:42:26;;;;;;;7.22;6.63;;;;;;;;;;5085424;28;20448;-71
2023/05/21 11:44:53;;;;;;;6.93;6.43;;;;;;;;;;5085816;28;20238;-71
2023/05/21 11:47:21;;;;;;;6.47;5.97;;;;;;;;;;5085529;28;20202;-71
2023/05/21 11:49:48;;;;;;;6.78;6.15;;;;;;;;;;5085614;28;20407;-71
2023/05/21 11:52:14;;;;;;;6.78;6.32;;;;;;;;;;5085265;28;20202;-71
2023/05/21 11:54:44;;;;;;;8.45;6.22;;;;;;;;;;5085233;28;20219;-71
2023/05/21 11:57:13;;;;;;;6.57;5.97;;;;;;;;;;5085726;28;20196;-71
2023/05/21 11:59:39;;;;;;;6.75;6.15;;;;;;;;;;5085313;28;20196;-71
2023/05/21 12:02:06;;;;;;;6.53;6.10;;;;;;;;;;5084909;28;20203;-71
2023/05/21 12:04:35;;;;;;;6.47;5.95;;;;;;;;;;5085045;28;20264;-71
2023/05/21 12:07:03;;;;;;;6.45;5.90;;;;;;;;;;5085089;28;20224;-71
2023/05/21 12:09:30;;;;;;;5.95;5.45;;;;;;;;;;5084918;28;20199;-71
2023/05/21 12:11:56;;;;;;;6.03;5.53;;;;;;;;;;5084773;28;20195;-71
2023/05/21 12:14:22;;;;;;;5.72;5.22;;;;;;;;;;5084781;28;20565;-71
2023/05/21 12:16:48;;;;;;;5.15;4.80;;;;;;;;;;5084787;28;20504;-70
2023/05/21 12:19:17;;;;;;;5.28;4.97;;;;;;;;;;5084719;28;20203;-70
2023/05/21 12:21:44;;;;;;;5.53;5.00;;;;;;;;;;5084561;28;20230;-71
2023/05/21 12:24:11;;;;;;;6.20;5.68;;;;;;;;;;5084726;28;20191;-71
2023/05/21 12:26:37;;;;;;;5.57;5.18;;;;;;;;;;5084564;28;20196;-71
2023/05/21 12:29:04;;;;;;;5.93;5.50;;;;;;;;;;5084623;28;20569;-71
2023/05/21 12:31:31;;;;;;;5.43;4.80;;;;;;;;;;5084622;28;20394;-70
2023/05/21 12:33:57;;;;;;;5.97;5.47;;;;;;;;;;5084303;28;20591;-70
2023/05/21 12:36:26;;;;;;;6.53;6.00;;;;;;;;;;5084360;28;20222;-70
2023/05/21 12:38:53;;;;;;;5.95;5.55;;;;;;;;;;5084455;28;20196;-70
2023/05/21 12:41:21;;;;;;;6.93;6.22;;;;;;;;;;5084573;28;20241;-70
2023/05/21 12:43:47;;;;;;;7.10;6.60;;;;;;;;;;5084210;28;20358;-70
2023/05/21 12:46:17;;;;;;;6.72;6.13;;;;;;;;;;5084293;28;20196;-71
2023/05/21 12:48:48;;;;;;;5.40;4.90;;;;;;;;;;5084014;28;20196;-71
2023/05/21 12:51:14;;;;;;;7.78;6.20;;;;;;;;;;5084080;28;20196;-71
2023/05/21 12:53:41;;;;;;;6.20;5.70;;;;;;;;;;5083809;28;20249;-71
2023/05/21 12:56:10;;;;;;;5.70;5.13;;;;;;;;;;5084345;28;20233;-71
2023/05/21 12:58:37;;;;;;;5.25;4.82;;;;;;;;;;5084156;28;20535;-71
2023/05/21 13:01:05;;;;;;;5.57;5.20;;;;;;;;;;5083836;28;20196;-71
2023/05/21 13:03:31;;;;;;;6.47;5.13;;;;;;;;;;5083594;28;20421;-71
2023/05/21 13:05:58;;;;;;;6.65;4.68;;;;;;;;;;5083930;28;20445;-71
2023/05/21 13:08:24;;;;;;;5.30;4.97;;;;;;;;;;5083973;28;20196;-71
2023/05/21 13:10:50;;;;;;;5.53;5.20;;;;;;;;;;5083663;28;20272;-71
2023/05/21 13:13:18;;;;;;;6.47;5.75;;;;;;;;;;5083575;28;20234;-71
2023/05/21 13:15:44;;;;;;;5.68;5.03;;;;;;;;;;5083701;28;20196;-71
2023/05/21 13:18:11;;;;;;;6.22;5.72;;;;;;;;;;5083468;28;20504;-71
2023/05/21 13:20:38;;;;;;;5.68;5.18;;;;;;;;;;5083728;28;20195;-71
2023/05/21 13:23:04;;;;;;;6.13;5.65;;;;;;;;;;5083155;28;20196;-71
2023/05/21 13:25:31;;;;;;;5.45;5.00;;;;;;;;;;5083253;28;20227;-71
2023/05/21 13:28:01;;;;;;;6.00;5.40;;;;;;;;;;5083185;28;20220;-71
2023/05/21 13:30:28;;;;;;;5.95;5.35;;;;;;;;;;5082925;28;20199;-71
2023/05/21 13:32:55;;;;;;;5.55;5.10;;;;;;;;;;5083130;28;20196;-71
2023/05/21 13:35:21;;;;;;;5.40;4.90;;;;;;;;;;5082902;28;20215;-71
2023/05/21 13:37:47;;;;;;;5.60;5.10;;;;;;;;;;5083102;28;20196;-71
2023/05/21 13:40:14;;;;;;;4.93;4.60;;;;;;;;;;5083213;28;20230;-71
2023/05/21 13:42:40;;;;;;;5.50;4.88;;;;;;;;;;5082602;28;20195;-71
2023/05/21 13:45:08;;;;;;;5.20;4.75;;;;;;;;;;5082438;28;20200;-71
2023/05/21 13:47:36;;;;;;;5.22;4.82;;;;;;;;;;5082787;28;20496;-71
2023/05/21 13:50:02;;;;;;;5.03;4.53;;;;;;;;;;5082732;28;20196;-71
2023/05/21 13:52:28;;;;;;;4.18;3.92;;;;;;;;;;5082470;28;20245;-71
2023/05/21 13:54:54;;;;;;;6.20;5.63;;;;;;;;;;5082535;28;20219;-72
2023/05/21 13:57:21;;;;;;;6.97;6.28;;;;;;;;;;5082338;28;20196;-72
2023/05/21 13:59:49;;;;;;;6.20;5.70;;;;;;;;;;5082269;28;20539;-72
2023/05/21 14:02:15;;;;;;;9.90;5.30;;;;;;;;;;5082370;28;20568;-71
2023/05/21 14:04:43;;;;;;;5.72;5.32;;;;;;;;;;5082247;28;20419;-71
2023/05/21 14:07:10;;;;;;;5.30;4.90;;;;;;;;;;5082324;28;20396;-71
2023/05/21 14:09:37;;;;;;;4.97;4.68;;;;;;;;;;5082421;28;20207;-71
2023/05/21 14:12:04;;;;;;;5.53;4.97;;;;;;;;;;5082350;28;20388;-71
2023/05/21 14:14:31;;;;;;;7.50;4.95;;;;;;;;;;5081927;28;20227;-71
2023/05/21 14:16:57;;;;;;;6.10;5.60;;;;;;;;;;5082370;28;20367;-71
2023/05/21 14:19:23;;;;;;;10.25;5.00;;;;;;;;;;5082341;28;20195;-71
2023/05/21 14:21:52;;;;;;;5.97;5.47;;;;;;;;;;5082289;28;20266;-71
2023/05/21 14:24:19;;;;;;;5.95;5.45;;;;;;;;;;5082040;28;20195;-71
2023/05/21 14:26:45;;;;;;;6.20;5.60;;;;;;;;;;5081994;28;20202;-71
2023/05/21 14:29:11;;;;;;;5.95;5.35;;;;;;;;;;5082060;28;20238;-71
2023/05/21 14:31:38;;;;;;;6.47;5.50;;;;;;;;;;5082261;28;20234;-71